Strona główna
METAR-TAF:

METAR-TAF

Lotnisko :

Koksijde, Belgia

Szerokość geograficzna: 51-05N, Długość geograficzna: 002-39E, wysokość: 4 m

Aktualna obserwacja pogody

Raport powstał 41 minut temu, godzina 17:55 UTC
Wiatr 6 kt od wschodnio-północny wschód
Temperatura 23°C
Wilgotność 57%
Ciśnienie 1012 hPa
Widzialność 10 km lub więcej

METAR: EBFN 171755Z AUTO 06006KT 9999 NCD 23/14 Q1012 BLU

czas: 20:36 (18:36 UTC)

Prognoza

Raport powstał 9 godziny i 55 minut temu, godzina 08:41 UTC
Prognoza ważna od 17 godzina 10 UTC do 17 godzina 19 UTC
Wiatr 3 kt z kierunków zmiennych
Widzialność 10 km lub więcej
Rozproszone chmury na wysokości 22000 ft
Stopniowe zmiany
od 17 godzina 10 UTC do 17 godzina 12 UTC
Wiatr 10 kt od północ
Mało chmury na wysokości 3000 ft

TAF: EBFN 170841Z 1710/1719 VRB03KT 9999 SCT220 BECMG 1710/1712 01010KT FEW030

Obserwacja i prognoza pogody dla ponad 4000 lotnisk (raport METAR i TAF).

Dostępne stacje oznaczono żółtymi i czerwonymi punktami na mapie.

Najedź kursorem aby zobaczyć nazwę stacji.

Kliknij aby zobaczyć obserwacje i prognozy pogody.

Aby zmienić mapę: kliknij na zielony przycisk z czarnym krzyżykiem, aby powiększyć; na zielony przycisk z myślnikiem, aby pomniejszyć; na zielone strzałki, aby przejść do map sąsiednich.


METAR-TAF: